Time;durP1;ratioP1;P1;durP2;ratioP2;P2;SDS_P1;SDS_P2;PMS_P1;PMS_P2;Temp;Humidity;BMP_temperature;BMP_pressure;BME280_temperature;BME280_humidity;BME280_pressure;Samples;Min_cycle;Max_cycle;Signal;HPM_P1;HPM_P2
2022/08/12 00:43:56;;;;;;;2.70;2.50;;;19.30;61.90;;;;;;5083392;28;20575;-78
2022/08/12 00:46:31;;;;;;;4.10;2.50;;;19.40;61.90;;;;;;5075079;28;20628;-78
2022/08/12 00:48:58;;;;;;;2.00;1.90;;;19.40;61.50;;;;;;5078886;28;20645;-78
2022/08/12 00:52:04;;;;;;;4.63;2.40;;;19.50;61.90;;;;;;5084597;28;20629;-79
2022/08/12 00:54:13;;;;;;;2.60;1.90;;;19.50;61.80;;;;;;5082906;28;20613;-79
2022/08/12 00:56:41;;;;;;;2.80;2.20;;;19.50;61.90;;;;;;5079896;28;21225;-79
2022/08/12 00:59:10;;;;;;;5.33;2.40;;;19.50;61.90;;;;;;5079484;28;20664;-79
2022/08/12 01:01:42;;;;;;;3.30;2.70;;;19.50;62.30;;;;;;5074282;28;21264;-79
2022/08/12 01:12:32;;;;;;;2.50;2.30;;;19.50;62.90;;;;;;5082610;28;20606;-79
2022/08/12 01:15:01;;;;;;;2.47;2.27;;;19.40;63.00;;;;;;5077226;28;20740;-79
2022/08/12 01:17:28;;;;;;;5.37;2.47;;;19.50;63.30;;;;;;5078509;28;20712;-79
2022/08/12 01:19:56;;;;;;;2.53;2.30;;;19.50;63.30;;;;;;5077420;28;20664;-79
2022/08/12 01:22:30;;;;;;;4.70;2.60;;;19.40;63.80;;;;;;5082067;28;20665;-78
2022/08/12 01:25:06;;;;;;;3.80;2.37;;;19.40;64.00;;;;;;5078772;28;20643;-78
2022/08/12 01:27:35;;;;;;;2.83;2.60;;;19.40;64.40;;;;;;5075500;28;21172;-79
2022/08/12 01:30:06;;;;;;;2.60;2.40;;;19.40;64.70;;;;;;5077108;28;20652;-79
2022/08/12 01:32:36;;;;;;;2.33;2.07;;;19.40;65.30;;;;;;5079958;28;21281;-79
2022/08/12 01:35:08;;;;;;;4.50;2.40;;;19.30;65.10;;;;;;5073955;28;20643;-78
2022/08/12 01:37:40;;;;;;;2.67;2.17;;;19.30;65.50;;;;;;5074335;28;20620;-79
2022/08/12 01:40:11;;;;;;;3.00;2.57;;;19.30;65.90;;;;;;5078295;28;20690;-78
2022/08/12 01:42:44;;;;;;;3.67;2.40;;;19.20;66.70;;;;;;5075937;28;20663;-79
2022/08/12 01:45:12;;;;;;;2.87;2.60;;;19.20;66.90;;;;;;5076185;28;21571;-78
2022/08/12 01:47:55;;;;;;;2.43;2.23;;;19.20;67.30;;;;;;5076803;28;20632;-79
2022/08/12 01:50:32;;;;;;;2.27;2.17;;;19.20;66.60;;;;;;5079564;28;20641;-79
2022/08/12 01:53:07;;;;;;;2.93;2.23;;;19.20;66.80;;;;;;5079922;28;20627;-78
2022/08/12 01:55:38;;;;;;;2.53;2.30;;;19.20;66.90;;;;;;5072803;28;21203;-79
2022/08/12 01:58:19;;;;;;;3.07;2.00;;;19.30;66.40;;;;;;5090336;28;21159;-79
2022/08/12 02:00:54;;;;;;;2.20;2.00;;;19.30;65.80;;;;;;5076715;28;20643;-79
2022/08/12 02:12:31;;;;;;;6.20;2.30;;;19.30;67.00;;;;;;5078575;28;20604;-78
2022/08/12 02:15:11;;;;;;;4.60;2.50;;;19.20;67.30;;;;;;5089600;28;21186;-78
2022/08/12 02:17:58;;;;;;;2.50;2.30;;;19.20;68.50;;;;;;5089871;28;21228;-81
2022/08/12 02:20:35;;;;;;;2.90;2.23;;;19.20;68.80;;;;;;5083517;28;20654;-80
2022/08/12 02:23:04;;;;;;;3.13;2.80;;;19.20;69.50;;;;;;5079724;28;21231;-80
2022/08/12 02:25:36;;;;;;;2.50;2.30;;;19.10;69.80;;;;;;5085334;28;20627;-80
2022/08/12 02:28:05;;;;;;;2.90;2.20;;;19.10;71.10;;;;;;5086783;28;20711;-80
2022/08/12 02:30:35;;;;;;;2.93;2.67;;;19.00;72.30;;;;;;5082403;28;20659;-80
2022/08/12 02:33:05;;;;;;;4.90;2.70;;;18.90;73.60;;;;;;5078144;28;20619;-80
2022/08/12 02:35:35;;;;;;;2.77;2.50;;;18.80;74.40;;;;;;5086666;28;20635;-80
2022/08/12 02:38:04;;;;;;;4.40;3.00;;;18.70;75.40;;;;;;5078700;28;20623;-81
2022/08/12 02:40:37;;;;;;;2.83;2.60;;;18.80;75.40;;;;;;5077855;28;21011;-80
2022/08/12 02:43:14;;;;;;;3.80;2.40;;;18.70;75.70;;;;;;5082277;28;21131;-80
2022/08/12 02:45:46;;;;;;;2.90;2.70;;;18.70;76.40;;;;;;5077252;28;20633;-80
2022/08/12 02:48:18;;;;;;;3.13;2.50;;;18.60;76.60;;;;;;5078219;28;20643;-80
2022/08/12 02:50:49;;;;;;;2.60;2.40;;;18.60;77.90;;;;;;5084944;28;20643;-80
2022/08/12 02:53:17;;;;;;;2.90;2.70;;;18.50;79.50;;;;;;5081618;28;20609;-80
2022/08/12 02:55:45;;;;;;;2.00;1.90;;;18.40;80.30;;;;;;5084374;28;20628;-79
2022/08/12 02:58:14;;;;;;;2.83;2.47;;;18.40;81.10;;;;;;5080851;28;20671;-79
2022/08/12 03:00:42;;;;;;;6.53;2.90;;;18.40;82.10;;;;;;5084188;28;20659;-80
2022/08/12 03:03:14;;;;;;;2.80;2.47;;;18.30;82.50;;;;;;5080243;28;20696;-80
2022/08/12 03:05:47;;;;;;;2.97;2.37;;;18.30;83.50;;;;;;5077339;28;20632;-80
2022/08/12 03:08:19;;;;;;;3.00;2.80;;;18.20;85.00;;;;;;5081362;28;20633;-80
2022/08/12 03:10:49;;;;;;;6.77;2.97;;;18.20;84.90;;;;;;5081877;28;20659;-79
2022/08/12 03:13:25;;;;;;;2.60;2.50;;;18.20;85.40;;;;;;5084158;28;21015;-79
2022/08/12 03:15:54;;;;;;;3.90;2.67;;;18.10;85.60;;;;;;5080829;28;20642;-79
2022/08/12 03:18:27;;;;;;;5.40;2.37;;;18.10;86.80;;;;;;5080704;28;20637;-79
2022/08/12 03:20:55;;;;;;;4.13;2.40;;;17.90;87.90;;;;;;5081291;28;20643;-79
2022/08/12 03:23:23;;;;;;;2.60;2.20;;;17.90;89.40;;;;;;5076933;28;21155;-79
2022/08/12 03:25:54;;;;;;;2.30;2.10;;;17.80;90.10;;;;;;5081042;28;20654;-79
2022/08/12 03:31:05;;;;;;;3.07;2.77;;;17.70;90.90;;;;;;5077029;28;20681;-79
2022/08/12 03:33:36;;;;;;;2.00;1.90;;;17.70;91.60;;;;;;5081359;28;20623;-79
2022/08/12 03:36:05;;;;;;;2.47;2.27;;;17.60;92.40;;;;;;5084989;28;20659;-79
2022/08/12 03:38:36;;;;;;;2.53;2.33;;;17.60;92.70;;;;;;5079789;28;20627;-79
2022/08/12 04:00:30;;;;;;;2.87;2.67;;;17.20;95.70;;;;;;5081459;28;21281;-79
2022/08/12 04:03:00;;;;;;;2.93;2.60;;;17.10;96.00;;;;;;5071480;28;20672;-79
2022/08/12 04:05:28;;;;;;;2.73;2.27;;;17.10;95.70;;;;;;5084366;28;20675;-79
2022/08/12 04:07:56;;;;;;;2.60;2.40;;;17.10;96.30;;;;;;5080647;28;20631;-79
2022/08/12 04:13:13;;;;;;;2.90;2.50;;;17.10;96.80;;;;;;5078098;28;20664;-79
2022/08/12 04:13:18;;;;;;;2.93;2.73;;;17.00;97.10;;;;;;5083599;28;21614;-79
2022/08/12 04:15:48;;;;;;;2.80;2.60;;;17.00;97.20;;;;;;5079408;28;20748;-79
2022/08/12 04:18:15;;;;;;;2.90;2.50;;;16.90;97.60;;;;;;5078947;28;20633;-79
2022/08/12 04:20:42;;;;;;;2.70;2.47;;;16.90;98.00;;;;;;5078778;28;20644;-79
2022/08/12 04:23:12;;;;;;;3.13;2.93;;;16.90;98.00;;;;;;5074841;28;20720;-79
2022/08/12 04:25:39;;;;;;;4.60;2.77;;;16.90;98.50;;;;;;5084970;28;20707;-79
2022/08/12 04:28:07;;;;;;;2.87;2.30;;;16.90;98.80;;;;;;5077153;28;20726;-79
2022/08/12 04:30:34;;;;;;;3.00;2.80;;;16.90;99.10;;;;;;5079540;28;20667;-79
2022/08/12 04:33:03;;;;;;;2.73;2.53;;;16.80;98.90;;;;;;5074591;28;20660;-79
2022/08/12 04:35:30;;;;;;;2.63;2.43;;;16.90;99.00;;;;;;5079678;28;20636;-78
2022/08/12 04:37:58;;;;;;;2.93;2.73;;;16.80;99.40;;;;;;5084261;28;20686;-78
2022/08/12 04:40:27;;;;;;;2.90;2.30;;;16.80;99.90;;;;;;5075532;28;20665;-78
2022/08/12 04:42:54;;;;;;;2.60;2.40;;;16.80;99.80;;;;;;5078236;28;20632;-78
2022/08/12 04:45:22;;;;;;;2.20;2.00;;;16.80;99.80;;;;;;5078104;28;21595;-78
2022/08/12 04:47:49;;;;;;;2.80;2.60;;;16.80;99.90;;;;;;5081685;28;20631;-78
2022/08/12 04:50:18;;;;;;;2.67;2.50;;;16.80;99.90;;;;;;5077758;28;21047;-78
2022/08/12 04:52:45;;;;;;;2.77;2.57;;;16.80;99.90;;;;;;5077867;28;20671;-78
2022/08/12 04:55:12;;;;;;;3.80;2.30;;;16.80;99.90;;;;;;5076044;28;20993;-78
2022/08/12 04:57:39;;;;;;;2.90;2.67;;;16.80;99.90;;;;;;5076617;28;20728;-79
2022/08/12 05:00:09;;;;;;;4.13;2.67;;;16.80;99.90;;;;;;5081718;28;20648;-79
2022/08/12 05:02:36;;;;;;;2.50;2.30;;;16.80;99.90;;;;;;5082605;28;20680;-79
2022/08/12 05:05:04;;;;;;;4.60;2.77;;;16.90;99.90;;;;;;5077794;28;20612;-79
2022/08/12 05:07:32;;;;;;;4.47;2.30;;;16.80;99.90;;;;;;5076683;28;20647;-78
2022/08/12 05:09:59;;;;;;;2.50;2.30;;;16.80;99.90;;;;;;5075533;28;20659;-78
2022/08/12 05:12:28;;;;;;;2.70;2.43;;;16.80;99.90;;;;;;5068162;28;20665;-79
2022/08/12 05:14:55;;;;;;;3.50;2.20;;;16.80;99.90;;;;;;5068270;28;20648;-78
2022/08/12 05:17:23;;;;;;;3.10;2.70;;;16.80;99.90;;;;;;5072169;28;20625;-80
2022/08/12 05:19:50;;;;;;;3.43;3.10;;;16.90;99.90;;;;;;5077777;28;20659;-80
2022/08/12 05:22:17;;;;;;;2.77;2.40;;;16.90;99.90;;;;;;5078910;28;20616;-80
2022/08/12 05:24:46;;;;;;;3.80;2.70;;;17.00;99.90;;;;;;5075150;28;20635;-80
2022/08/12 05:27:13;;;;;;;5.90;2.80;;;17.00;99.90;;;;;;5077326;28;20633;-80
2022/08/12 05:29:41;;;;;;;2.60;2.40;;;17.10;99.90;;;;;;5078892;28;20659;-79
2022/08/12 05:32:09;;;;;;;6.27;3.47;;;17.20;99.90;;;;;;5078573;28;20721;-80
2022/08/12 05:34:36;;;;;;;3.20;2.30;;;17.30;99.90;;;;;;5068164;28;20815;-79
2022/08/12 05:37:03;;;;;;;5.33;2.93;;;17.30;99.90;;;;;;5085384;28;20651;-79
2022/08/12 05:39:30;;;;;;;5.10;2.93;;;17.40;99.90;;;;;;5081349;28;20656;-79
2022/08/12 05:41:58;;;;;;;4.53;3.13;;;17.50;99.90;;;;;;5068484;28;20625;-80
2022/08/12 05:44:25;;;;;;;5.10;3.27;;;17.50;99.90;;;;;;5069871;28;20629;-80
2022/08/12 05:46:52;;;;;;;5.23;3.10;;;17.60;99.90;;;;;;5081423;28;20634;-80
2022/08/12 05:49:19;;;;;;;3.20;2.70;;;17.70;99.90;;;;;;5074549;28;20649;-80
2022/08/12 05:51:45;;;;;;;3.20;2.93;;;17.80;99.90;;;;;;5082984;28;20624;-80
2022/08/12 05:54:12;;;;;;;5.73;3.53;;;17.90;99.50;;;;;;5077527;28;20661;-80
2022/08/12 05:56:40;;;;;;;4.87;2.93;;;18.00;99.30;;;;;;5073664;28;20631;-79
2022/08/12 05:59:10;;;;;;;4.53;4.13;;;18.10;99.00;;;;;;5077731;28;20666;-80
2022/08/12 06:01:38;;;;;;;3.57;3.27;;;18.20;98.80;;;;;;5081465;28;20963;-80
2022/08/12 06:04:05;;;;;;;3.40;3.10;;;18.30;98.60;;;;;;5077636;28;20621;-80
2022/08/12 06:06:40;;;;;;;2.87;2.60;;;18.40;98.00;;;;;;5073041;28;20680;-79
2022/08/12 06:09:08;;;;;;;6.83;2.93;;;18.50;97.50;;;;;;5076723;28;20641;-80
2022/08/12 06:11:35;;;;;;;3.10;2.90;;;18.60;97.20;;;;;;5080037;28;20628;-79
2022/08/12 06:14:03;;;;;;;4.73;3.50;;;18.70;97.00;;;;;;5079500;28;20664;-80
2022/08/12 06:16:32;;;;;;;3.60;3.33;;;18.80;96.60;;;;;;5079444;28;20980;-80
2022/08/12 06:18:59;;;;;;;4.23;3.17;;;18.90;96.10;;;;;;5075304;28;20705;-80
2022/08/12 06:21:25;;;;;;;3.40;3.13;;;19.00;95.60;;;;;;5083427;28;20632;-80
2022/08/12 06:23:53;;;;;;;3.40;2.77;;;19.20;95.10;;;;;;5071070;28;20621;-80
2022/08/12 06:26:20;;;;;;;3.10;2.80;;;19.30;94.20;;;;;;5078809;28;20686;-80
2022/08/12 06:28:49;;;;;;;4.13;3.27;;;19.40;93.70;;;;;;5077343;28;20640;-80
2022/08/12 06:31:17;;;;;;;3.27;2.60;;;19.50;93.90;;;;;;5074580;28;20992;-79
2022/08/12 06:33:48;;;;;;;2.83;2.63;;;19.60;93.00;;;;;;5080254;28;20791;-79
2022/08/12 06:36:17;;;;;;;4.53;3.33;;;19.70;92.50;;;;;;5079109;28;20623;-79
2022/08/12 06:38:45;;;;;;;5.97;2.97;;;19.80;92.40;;;;;;5086831;28;20628;-79
2022/08/12 06:43:57;;;;;;;5.60;3.10;;;20.00;91.70;;;;;;5080182;28;20905;-79
2022/08/12 06:46:25;;;;;;;3.97;2.80;;;20.10;91.50;;;;;;5084030;28;21069;-80
2022/08/12 06:48:57;;;;;;;3.40;2.33;;;20.20;90.90;;;;;;5079964;28;20670;-79
2022/08/12 06:51:25;;;;;;;5.97;2.50;;;20.40;88.70;;;;;;5082562;28;21174;-80
2022/08/12 06:53:52;;;;;;;6.93;2.80;;;20.50;87.50;;;;;;5079055;28;21213;-80
2022/08/12 06:56:19;;;;;;;3.57;3.10;;;20.60;86.60;;;;;;5090841;28;20636;-80
2022/08/12 06:58:46;;;;;;;3.87;2.90;;;20.70;86.70;;;;;;5085392;28;20712;-80
2022/08/12 07:01:13;;;;;;;5.57;3.10;;;20.90;86.70;;;;;;5079721;28;20631;-79
2022/08/12 07:03:40;;;;;;;3.73;2.90;;;21.00;85.70;;;;;;5081783;28;21337;-80
2022/08/12 07:06:12;;;;;;;3.90;2.17;;;21.10;84.80;;;;;;5076284;28;20636;-80
2022/08/12 07:08:41;;;;;;;3.47;3.17;;;21.30;83.00;;;;;;5080188;28;20689;-79
2022/08/12 07:11:10;;;;;;;3.83;2.90;;;21.30;81.60;;;;;;5075083;28;20625;-80
2022/08/12 07:13:41;;;;;;;2.93;2.70;;;21.40;81.00;;;;;;5088094;28;20667;-80
2022/08/12 07:16:10;;;;;;;3.93;2.97;;;21.50;78.60;;;;;;5078805;28;20666;-79
2022/08/12 07:18:38;;;;;;;6.80;2.20;;;21.60;77.40;;;;;;5083773;28;21407;-79
2022/08/12 07:21:06;;;;;;;4.90;2.50;;;21.80;76.50;;;;;;5080515;28;21019;-79
2022/08/12 07:23:36;;;;;;;4.40;1.97;;;21.80;75.20;;;;;;5080009;28;20628;-80
2022/08/12 07:26:05;;;;;;;2.80;2.20;;;22.00;75.70;;;;;;5081339;28;20628;-79
2022/08/12 07:28:35;;;;;;;4.30;2.03;;;22.10;75.20;;;;;;5082250;28;20639;-80
2022/08/12 07:31:06;;;;;;;3.33;2.30;;;22.20;74.50;;;;;;5083892;28;20635;-80
2022/08/12 07:33:33;;;;;;;2.70;2.20;;;22.30;74.20;;;;;;5079881;28;20741;-79
2022/08/12 07:36:02;;;;;;;3.23;2.30;;;22.50;73.50;;;;;;5078827;28;21045;-80
2022/08/12 07:38:32;;;;;;;3.27;2.53;;;22.60;72.80;;;;;;5074278;28;20686;-79
2022/08/12 07:41:04;;;;;;;3.87;1.70;;;22.70;72.60;;;;;;5083188;28;20620;-79
2022/08/12 07:43:34;;;;;;;4.27;2.63;;;22.80;71.70;;;;;;5078639;28;20624;-78
2022/08/12 07:46:02;;;;;;;2.67;2.33;;;22.90;71.90;;;;;;5076648;28;21217;-79
2022/08/12 07:48:36;;;;;;;4.03;1.97;;;23.00;70.70;;;;;;5077299;28;20710;-78
2022/08/12 07:51:04;;;;;;;3.50;2.50;;;23.20;70.10;;;;;;5077957;28;20615;-79
2022/08/12 07:53:31;;;;;;;2.90;2.20;;;23.20;67.60;;;;;;5083581;28;20680;-79
2022/08/12 07:55:58;;;;;;;2.53;2.33;;;23.40;67.20;;;;;;5080392;28;21045;-79
2022/08/12 07:58:26;;;;;;;5.17;3.13;;;23.50;67.20;;;;;;5077189;28;20714;-78
2022/08/12 08:00:56;;;;;;;2.40;2.20;;;23.60;66.70;;;;;;5079589;28;20620;-79
2022/08/12 08:03:24;;;;;;;2.13;1.87;;;23.70;65.10;;;;;;5073358;28;20682;-79
2022/08/12 08:05:52;;;;;;;4.43;2.20;;;23.80;65.60;;;;;;5077737;28;20624;-78
2022/08/12 08:08:21;;;;;;;3.60;2.30;;;23.90;65.10;;;;;;5079432;28;21184;-78
2022/08/12 08:10:49;;;;;;;2.70;2.50;;;23.90;63.70;;;;;;5075834;28;20649;-78
2022/08/12 08:13:15;;;;;;;1.90;1.80;;;24.00;63.50;;;;;;5079763;28;20629;-78
2022/08/12 08:15:45;;;;;;;4.13;1.90;;;24.10;63.60;;;;;;5079884;28;20640;-78
2022/08/12 08:18:15;;;;;;;5.60;2.00;;;24.20;63.30;;;;;;5081046;28;20621;-78
2022/08/12 08:20:44;;;;;;;1.90;1.60;;;24.30;63.00;;;;;;5080501;28;20989;-78
2022/08/12 08:23:14;;;;;;;2.83;2.07;;;24.40;62.10;;;;;;5078685;28;20631;-78
2022/08/12 08:25:41;;;;;;;2.23;1.87;;;24.50;62.30;;;;;;5086563;28;20623;-78
2022/08/12 08:28:10;;;;;;;4.43;1.80;;;24.60;61.40;;;;;;5076392;28;20628;-78
2022/08/12 08:30:41;;;;;;;2.03;1.93;;;24.70;60.60;;;;;;5082251;28;20651;-78
2022/08/12 08:33:11;;;;;;;2.33;2.13;;;24.70;59.10;;;;;;5072356;28;21158;-78
2022/08/12 08:35:38;;;;;;;2.43;2.00;;;24.80;59.30;;;;;;5078996;28;20628;-78
2022/08/12 08:38:10;;;;;;;3.20;2.10;;;24.90;60.70;;;;;;5086435;28;20699;-78
2022/08/12 08:43:24;;;;;;;3.20;1.90;;;25.20;60.80;;;;;;5081878;28;20653;-78
2022/08/12 08:45:51;;;;;;;4.27;2.10;;;25.30;60.30;;;;;;5077142;28;20569;-78
2022/08/12 08:48:21;;;;;;;3.90;2.60;;;25.40;59.70;;;;;;5077446;28;20649;-78
2022/08/12 08:50:47;;;;;;;4.80;2.50;;;25.40;59.70;;;;;;5089832;28;20666;-78
2022/08/12 08:53:14;;;;;;;2.33;2.10;;;25.50;57.40;;;;;;5082033;28;20630;-78
2022/08/12 08:55:42;;;;;;;1.90;1.80;;;25.50;56.90;;;;;;5087542;28;20660;-78
2022/08/12 08:58:09;;;;;;;2.77;1.93;;;25.50;57.00;;;;;;5070555;28;20629;-78
2022/08/12 09:00:38;;;;;;;4.10;2.20;;;25.50;57.70;;;;;;5090501;28;21017;-78
2022/08/12 09:03:05;;;;;;;7.67;2.90;;;25.60;57.90;;;;;;5082706;28;20630;-78
2022/08/12 09:05:34;;;;;;;3.10;1.97;;;25.60;56.80;;;;;;5080714;28;21154;-78
2022/08/12 09:08:02;;;;;;;6.93;2.03;;;25.70;56.00;;;;;;5079395;28;20979;-78
2022/08/12 09:10:32;;;;;;;4.13;1.80;;;25.80;56.50;;;;;;5082336;28;20893;-78
2022/08/12 09:15:45;;;;;;;2.57;2.10;;;26.00;56.90;;;;;;5078215;28;20611;-78
2022/08/12 09:18:14;;;;;;;1.93;1.83;;;26.10;56.00;;;;;;5079541;28;20637;-78
2022/08/12 09:20:42;;;;;;;3.17;1.73;;;26.20;54.30;;;;;;5079440;28;21033;-78
2022/08/12 09:23:12;;;;;;;2.20;2.00;;;26.20;54.30;;;;;;5079106;28;20626;-78
2022/08/12 09:25:40;;;;;;;3.77;2.23;;;26.30;54.30;;;;;;5081153;28;20632;-78
2022/08/12 09:28:09;;;;;;;2.30;1.40;;;26.30;54.70;;;;;;5079020;28;20628;-78
2022/08/12 09:30:36;;;;;;;3.73;1.50;;;26.40;54.20;;;;;;5074262;28;20652;-78
2022/08/12 09:33:04;;;;;;;2.97;2.17;;;26.40;53.80;;;;;;5073694;28;21198;-79
2022/08/12 09:35:33;;;;;;;4.03;1.90;;;26.50;52.70;;;;;;5079783;28;21012;-79
2022/08/12 09:38:02;;;;;;;2.10;2.00;;;26.50;52.40;;;;;;5079255;28;20624;-79
2022/08/12 09:40:31;;;;;;;2.40;1.90;;;26.40;52.70;;;;;;5072858;28;20648;-79
2022/08/12 09:45:47;;;;;;;2.00;1.73;;;26.30;52.60;;;;;;5070905;28;20642;-79
2022/08/12 09:48:16;;;;;;;5.77;2.10;;;26.40;52.60;;;;;;5076425;28;21300;-79
2022/08/12 09:50:43;;;;;;;2.20;1.70;;;26.40;52.20;;;;;;5076957;28;20676;-79
2022/08/12 09:53:14;;;;;;;1.87;1.77;;;26.50;52.30;;;;;;5074357;28;21725;-79
2022/08/12 09:55:43;;;;;;;6.07;1.97;;;26.70;52.30;;;;;;5086371;28;21298;-79
2022/08/12 09:58:10;;;;;;;2.33;1.70;;;26.70;51.80;;;;;;5073555;28;21076;-78
2022/08/12 10:00:37;;;;;;;1.77;1.67;;;26.80;51.30;;;;;;5088283;28;20653;-79
2022/08/12 10:03:05;;;;;;;3.17;2.30;;;26.90;51.10;;;;;;5080459;28;20632;-79
2022/08/12 10:05:35;;;;;;;1.90;1.77;;;26.90;50.30;;;;;;5078610;28;20639;-79
2022/08/12 10:08:04;;;;;;;2.30;1.90;;;27.00;50.70;;;;;;5078584;28;20632;-79
2022/08/12 10:10:32;;;;;;;2.73;2.10;;;27.10;51.00;;;;;;5076352;28;20688;-79
2022/08/12 10:15:45;;;;;;;4.23;1.80;;;27.30;50.80;;;;;;5078694;28;20790;-79
2022/08/12 10:18:13;;;;;;;2.03;1.70;;;27.50;50.50;;;;;;5081831;28;21205;-78
2022/08/12 10:20:40;;;;;;;5.57;2.30;;;27.60;50.10;;;;;;5085891;28;21153;-78
2022/08/12 10:23:07;;;;;;;5.20;2.20;;;27.70;49.70;;;;;;5080366;28;20620;-79
2022/08/12 10:31:05;;;;;;;3.10;1.90;;;28.30;48.90;;;;;;5084259;28;20653;-79
2022/08/12 10:33:33;;;;;;;3.27;1.80;;;28.40;47.90;;;;;;5084800;28;20666;-79
2022/08/12 10:36:01;;;;;;;4.57;1.87;;;28.70;48.10;;;;;;5080891;28;20695;-79
2022/08/12 10:38:28;;;;;;;2.50;2.03;;;28.80;47.90;;;;;;5082222;28;20635;-79
2022/08/12 10:43:41;;;;;;;1.90;1.80;;;29.50;47.40;;;;;;5078706;28;21185;-80
2022/08/12 10:46:08;;;;;;;3.63;1.70;;;29.60;45.90;;;;;;5079245;28;20973;-79
2022/08/12 10:48:35;;;;;;;3.03;2.40;;;29.80;45.90;;;;;;5082367;28;20634;-79
2022/08/12 10:51:03;;;;;;;5.93;1.87;;;30.10;45.30;;;;;;5081955;28;20623;-79
2022/08/12 10:53:31;;;;;;;4.90;1.67;;;30.30;44.70;;;;;;5078903;28;20625;-79
2022/08/12 10:55:59;;;;;;;1.80;1.70;;;30.50;44.90;;;;;;5085389;28;20675;-79
2022/08/12 10:58:27;;;;;;;2.37;2.17;;;30.70;42.10;;;;;;5090775;28;20632;-80
2022/08/12 11:00:54;;;;;;;3.73;1.53;;;30.90;43.10;;;;;;5083580;28;20624;-80
2022/08/12 11:03:21;;;;;;;3.43;1.70;;;31.20;42.10;;;;;;5082690;28;20628;-80
2022/08/12 11:05:48;;;;;;;5.00;1.60;;;30.70;40.50;;;;;;5078684;28;20634;-80
2022/08/12 11:08:16;;;;;;;1.77;1.37;;;31.00;40.30;;;;;;5086721;28;21190;-80
2022/08/12 11:10:43;;;;;;;2.07;1.87;;;31.30;40.30;;;;;;5083996;28;20651;-80
2022/08/12 11:13:11;;;;;;;2.03;1.70;;;31.70;40.00;;;;;;5084308;28;20711;-80
2022/08/12 11:15:38;;;;;;;2.53;1.77;;;31.90;39.20;;;;;;5083601;28;20674;-80
2022/08/12 11:18:05;;;;;;;4.43;1.97;;;31.90;38.70;;;;;;5082172;28;20636;-80
2022/08/12 11:20:34;;;;;;;2.83;1.70;;;31.90;38.40;;;;;;5083514;28;20694;-80
2022/08/12 11:23:01;;;;;;;2.60;1.60;;;32.00;39.20;;;;;;5080984;28;20631;-80
2022/08/12 11:25:28;;;;;;;2.10;1.90;;;32.30;38.70;;;;;;5082528;28;20669;-78
2022/08/12 11:27:55;;;;;;;2.13;1.93;;;32.50;38.40;;;;;;5083235;28;20628;-78
2022/08/12 11:30:23;;;;;;;2.80;2.03;;;32.70;37.50;;;;;;5081385;28;20662;-78
2022/08/12 11:32:50;;;;;;;3.40;1.63;;;32.80;37.70;;;;;;5081502;28;20620;-78
2022/08/12 11:35:17;;;;;;;6.63;1.77;;;32.70;37.60;;;;;;5082442;28;20668;-78
2022/08/12 11:37:43;;;;;;;4.73;1.53;;;32.50;36.80;;;;;;5083076;28;21135;-79
2022/08/12 11:40:11;;;;;;;1.80;1.70;;;32.40;37.30;;;;;;5082999;28;21018;-79
2022/08/12 11:42:38;;;;;;;2.53;1.60;;;32.50;36.30;;;;;;5086879;28;20616;-79
2022/08/12 11:45:05;;;;;;;2.43;1.73;;;32.80;37.60;;;;;;5079510;28;20631;-79
2022/08/12 11:47:33;;;;;;;3.60;2.00;;;33.10;36.00;;;;;;5077910;28;20642;-78
2022/08/12 11:50:00;;;;;;;2.30;2.10;;;33.20;36.70;;;;;;5077773;28;20647;-78
2022/08/12 11:52:27;;;;;;;2.27;2.07;;;33.50;36.00;;;;;;5083475;28;20624;-79
2022/08/12 11:54:54;;;;;;;4.17;1.90;;;33.90;35.20;;;;;;5080338;28;21471;-78
2022/08/12 11:57:21;;;;;;;1.70;1.50;;;34.10;34.40;;;;;;5083276;28;21007;-78
2022/08/12 11:59:47;;;;;;;2.87;2.03;;;34.20;34.60;;;;;;5080183;28;20648;-79
2022/08/12 12:02:14;;;;;;;4.53;1.73;;;34.40;34.40;;;;;;5079741;28;20632;-78
2022/08/12 12:04:44;;;;;;;4.37;1.70;;;34.30;34.20;;;;;;5081615;28;20655;-79
2022/08/12 12:07:11;;;;;;;3.30;2.00;;;34.10;34.00;;;;;;5084939;28;20651;-79
2022/08/12 12:09:38;;;;;;;1.70;1.60;;;33.60;33.10;;;;;;5089058;28;20648;-78
2022/08/12 12:12:05;;;;;;;2.30;1.90;;;33.80;34.30;;;;;;5074858;28;20627;-79
2022/08/12 12:14:32;;;;;;;2.03;1.50;;;34.20;33.70;;;;;;5079792;28;20677;-79
2022/08/12 12:16:59;;;;;;;1.80;1.70;;;34.60;33.20;;;;;;5084006;28;20970;-78
2022/08/12 12:19:26;;;;;;;5.10;2.00;;;34.70;33.00;;;;;;5079555;28;21285;-79
2022/08/12 12:21:54;;;;;;;1.93;1.67;;;34.70;32.90;;;;;;5083276;28;21262;-79
2022/08/12 12:24:21;;;;;;;3.03;2.00;;;35.00;31.80;;;;;;5078308;28;20637;-78
2022/08/12 12:26:47;;;;;;;4.70;1.97;;;35.30;32.30;;;;;;5084189;28;21187;-79
2022/08/12 12:29:16;;;;;;;3.33;1.70;;;35.60;30.80;;;;;;5077279;28;20688;-78
2022/08/12 12:31:43;;;;;;;4.83;1.50;;;35.80;31.10;;;;;;5075444;28;20715;-78
2022/08/12 12:34:10;;;;;;;2.17;1.50;;;36.40;31.50;;;;;;5083939;28;20651;-78
2022/08/12 12:36:36;;;;;;;2.70;1.80;;;36.70;30.00;;;;;;5083079;28;20682;-79
2022/08/12 12:39:04;;;;;;;2.33;1.83;;;36.70;30.30;;;;;;5084783;28;20296;-78
2022/08/12 12:41:31;;;;;;;2.97;1.93;;;36.50;30.00;;;;;;5081885;28;20213;-79
2022/08/12 12:43:58;;;;;;;7.13;1.90;;;36.20;30.00;;;;;;5083450;28;20214;-80
2022/08/12 12:46:25;;;;;;;6.87;1.70;;;35.60;30.00;;;;;;5082072;28;20194;-80
2022/08/12 12:48:52;;;;;;;5.93;1.90;;;35.30;30.80;;;;;;5080946;28;20221;-78
2022/08/12 12:51:18;;;;;;;4.27;1.83;;;35.70;31.10;;;;;;5087306;28;20224;-80
2022/08/12 12:53:48;;;;;;;8.07;1.90;;;36.20;31.30;;;;;;5081757;28;20213;-80
2022/08/12 12:56:19;;;;;;;3.90;1.67;;;36.50;30.30;;;;;;5078556;28;20214;-80
2022/08/12 12:58:48;;;;;;;3.57;1.53;;;36.70;29.90;;;;;;5074180;28;20218;-80
2022/08/12 13:01:17;;;;;;;3.73;1.57;;;36.40;30.10;;;;;;5078876;28;20210;-78
2022/08/12 13:03:45;;;;;;;3.63;1.80;;;36.10;30.00;;;;;;5089624;28;20205;-78
2022/08/12 13:06:12;;;;;;;2.10;1.37;;;35.80;30.00;;;;;;5078592;28;20205;-78
2022/08/12 13:08:40;;;;;;;3.22;1.77;;;36.20;29.80;;;;;;5089346;28;20668;-80
2022/08/12 13:11:07;;;;;;;5.23;2.00;;;36.60;29.50;;;;;;5075125;28;20721;-78
2022/08/12 13:13:36;;;;;;;5.80;1.77;;;36.90;29.50;;;;;;5083766;28;20205;-80
2022/08/12 13:16:04;;;;;;;4.80;1.67;;;36.80;29.20;;;;;;5079732;28;20209;-79
2022/08/12 13:18:35;;;;;;;2.40;1.80;;;36.60;29.70;;;;;;5082334;28;20213;-78
2022/08/12 13:21:04;;;;;;;1.80;1.70;;;35.90;29.30;;;;;;5081593;28;20202;-78
2022/08/12 13:23:31;;;;;;;3.10;1.80;;;35.50;29.60;;;;;;5079333;28;20552;-80
2022/08/12 13:25:58;;;;;;;4.67;2.03;;;35.30;30.10;;;;;;5084068;28;20329;-80
2022/08/12 13:28:28;;;;;;;3.77;1.57;;;35.40;29.30;;;;;;5080700;28;20206;-80
2022/08/12 13:30:58;;;;;;;3.83;1.60;;;35.40;29.40;;;;;;5084301;28;20237;-80
2022/08/12 13:33:25;;;;;;;1.63;1.53;;;35.20;29.10;;;;;;5078046;28;20645;-80
2022/08/12 13:35:53;;;;;;;4.20;1.77;;;35.70;29.70;;;;;;5079159;28;20998;-80
2022/08/12 13:38:26;;;;;;;2.33;1.70;;;36.10;29.00;;;;;;5076458;28;20715;-80
2022/08/12 13:40:57;;;;;;;5.60;1.83;;;35.60;28.80;;;;;;5073372;28;20288;-79
2022/08/12 13:43:23;;;;;;;7.17;2.10;;;35.40;29.40;;;;;;5070804;28;21008;-79
2022/08/12 13:45:50;;;;;;;4.83;1.90;;;35.20;29.20;;;;;;5072374;28;20221;-79
2022/08/12 13:48:18;;;;;;;2.37;1.80;;;34.80;29.40;;;;;;5071687;28;20319;-79
2022/08/12 13:50:45;;;;;;;2.07;1.50;;;34.40;29.80;;;;;;5082821;28;20647;-79
2022/08/12 13:53:14;;;;;;;3.63;1.73;;;34.10;29.80;;;;;;5076700;28;21043;-79
2022/08/12 13:55:44;;;;;;;4.03;2.20;;;33.80;30.10;;;;;;5088838;28;20631;-79
2022/08/12 13:58:15;;;;;;;2.37;1.30;;;33.90;30.60;;;;;;5077106;28;20628;-78
2022/08/12 14:00:44;;;;;;;1.87;1.57;;;34.50;30.30;;;;;;5089200;28;20646;-80
2022/08/12 14:03:12;;;;;;;3.87;2.30;;;35.30;30.10;;;;;;5083339;28;20632;-79
2022/08/12 14:05:41;;;;;;;1.73;1.63;;;36.00;29.20;;;;;;5090145;28;20721;-79
2022/08/12 14:08:09;;;;;;;3.60;1.63;;;36.60;29.00;;;;;;5078612;28;20638;-80
2022/08/12 14:10:39;;;;;;;3.60;1.80;;;37.20;28.50;;;;;;5075201;28;20221;-80
2022/08/12 14:13:08;;;;;;;2.87;1.50;;;37.20;28.00;;;;;;5071593;28;20389;-80
2022/08/12 14:15:37;;;;;;;3.07;1.40;;;37.00;28.70;;;;;;5082287;28;20292;-80
2022/08/12 14:18:09;;;;;;;1.50;1.30;;;36.70;28.70;;;;;;5072428;28;20199;-80
2022/08/12 14:20:36;;;;;;;3.70;1.80;;;36.40;28.70;;;;;;5085044;28;20870;-80
2022/08/12 14:23:04;;;;;;;1.70;1.60;;;36.70;28.90;;;;;;5082063;28;20828;-78
2022/08/12 14:25:31;;;;;;;2.00;1.40;;;37.20;28.60;;;;;;5083136;28;20654;-78
2022/08/12 14:28:11;;;;;;;4.30;1.55;;;37.70;27.60;;;;;;5083225;28;20213;-78
2022/08/12 14:30:44;;;;;;;2.22;1.27;;;38.00;26.70;;;;;;5089084;28;21211;-78
2022/08/12 14:33:11;;;;;;;4.20;1.65;;;37.50;26.80;;;;;;5081897;28;20202;-80
2022/08/12 14:35:38;;;;;;;2.40;1.60;;;36.00;27.50;;;;;;5087736;28;20622;-78
2022/08/12 14:38:19;;;;;;;2.00;1.77;;;36.10;27.80;;;;;;5096471;28;20207;-77
2022/08/12 14:40:46;;;;;;;1.33;1.23;;;35.80;27.50;;;;;;5079450;28;20240;-78